Time;durP1;ratioP1;P1;durP2;ratioP2;P2;SDS_P1;SDS_P2;PMS_P1;PMS_P2;Temp;Humidity;BMP_temperature;BMP_pressure;BME280_temperature;BME280_humidity;BME280_pressure;Samples;Min_cycle;Max_cycle;Signal;HPM_P1;HPM_P2
2023/07/13 00:00:26;;;;;;;6.07;2.25;;;25.00;49.50;;;;;;5050075;28;19909;-42
2023/07/13 00:02:54;;;;;;;7.68;2.55;;;25.00;49.90;;;;;;5050313;28;20029;-47
2023/07/13 00:05:21;;;;;;;7.87;2.50;;;24.90;49.60;;;;;;5049582;28;20037;-42
2023/07/13 00:07:48;;;;;;;6.82;2.25;;;25.00;49.70;;;;;;5050389;28;20055;-44
2023/07/13 00:10:14;;;;;;;8.88;2.95;;;24.90;49.70;;;;;;5050070;28;20112;-46
2023/07/13 00:12:40;;;;;;;7.22;2.63;;;24.90;49.80;;;;;;5067466;28;20386;-43
2023/07/13 00:15:22;;;;;;;4.65;2.30;;;24.90;50.00;;;;;;5067379;28;20033;-45
2023/07/13 00:17:53;;;;;;;7.38;2.38;;;25.00;50.20;;;;;;5066160;28;20448;-42
2023/07/13 00:20:21;;;;;;;6.78;2.20;;;25.00;49.90;;;;;;5068005;28;20067;-41
2023/07/13 00:22:49;;;;;;;4.63;2.00;;;25.00;50.00;;;;;;5067464;28;20021;-43
2023/07/13 00:25:15;;;;;;;6.05;2.15;;;25.00;49.90;;;;;;5066659;28;20564;-43
2023/07/13 00:27:43;;;;;;;6.47;2.10;;;25.00;49.70;;;;;;5067938;28;20043;-42
2023/07/13 00:30:10;;;;;;;4.43;1.90;;;25.00;49.70;;;;;;5067207;28;20036;-42
2023/07/13 00:32:36;;;;;;;5.05;1.95;;;25.00;49.70;;;;;;5067972;28;20029;-43
2023/07/13 00:35:03;;;;;;;5.72;1.75;;;25.00;49.70;;;;;;5067015;28;20090;-43
2023/07/13 00:37:29;;;;;;;6.45;2.15;;;25.00;49.70;;;;;;5049495;28;20029;-47
2023/07/13 00:39:55;;;;;;;5.63;2.00;;;25.00;49.80;;;;;;5048716;28;20036;-42
2023/07/13 00:42:21;;;;;;;8.43;2.38;;;25.00;49.90;;;;;;5049723;28;20021;-44
2023/07/13 00:45:06;;;;;;;6.03;2.22;;;24.90;49.70;;;;;;5047776;28;20053;-49
2023/07/13 00:47:31;;;;;;;9.35;2.10;;;24.90;49.90;;;;;;5047990;28;20609;-45
2023/07/13 00:49:58;;;;;;;7.50;2.20;;;24.90;49.80;;;;;;5049381;28;20029;-43
2023/07/13 00:52:28;;;;;;;7.43;2.10;;;24.90;49.80;;;;;;5066422;28;20024;-42
2023/07/13 00:54:55;;;;;;;6.13;2.22;;;24.90;49.90;;;;;;5075024;22;20103;-49
2023/07/13 00:57:21;;;;;;;6.95;2.30;;;24.90;49.90;;;;;;5049514;28;20025;-47
2023/07/13 00:59:51;;;;;;;6.50;2.30;;;24.90;50.00;;;;;;5048403;28;20036;-49
2023/07/13 01:02:17;;;;;;;6.90;2.60;;;24.80;49.90;;;;;;5049339;28;20021;-47
2023/07/13 01:04:43;;;;;;;7.18;2.10;;;24.80;50.00;;;;;;5049748;28;20624;-43
2023/07/13 01:07:11;;;;;;;6.72;2.33;;;24.80;50.10;;;;;;5048104;28;20033;-43
2023/07/13 01:09:37;;;;;;;4.45;2.05;;;24.80;50.10;;;;;;5049199;28;20142;-46
2023/07/13 01:12:03;;;;;;;8.60;3.35;;;24.80;50.20;;;;;;5049747;28;20028;-45
2023/07/13 01:14:30;;;;;;;7.05;2.13;;;24.80;50.20;;;;;;5047290;28;20411;-41
2023/07/13 01:16:56;;;;;;;7.10;2.15;;;24.80;50.30;;;;;;5049543;28;20044;-45
2023/07/13 01:19:36;;;;;;;7.55;2.55;;;24.80;50.20;;;;;;5049761;28;20026;-45
2023/07/13 01:22:11;;;;;;;4.15;1.98;;;24.80;50.20;;;;;;5054400;28;20587;-47
2023/07/13 01:24:38;;;;;;;5.38;1.98;;;24.80;50.30;;;;;;5066421;28;20546;-47
2023/07/13 01:27:06;;;;;;;3.53;1.75;;;24.70;50.20;;;;;;5065426;28;20039;-45
2023/07/13 01:29:33;;;;;;;5.93;2.10;;;24.70;50.20;;;;;;5069676;28;20044;-45
2023/07/13 01:32:00;;;;;;;4.65;1.83;;;24.70;50.20;;;;;;5059413;28;20028;-48
2023/07/13 01:34:27;;;;;;;5.85;2.10;;;24.70;50.20;;;;;;5050997;28;20031;-51
2023/07/13 01:36:56;;;;;;;5.10;2.10;;;24.70;50.10;;;;;;5053164;28;20025;-45
2023/07/13 01:39:22;;;;;;;4.00;1.83;;;24.70;50.10;;;;;;5052721;28;20036;-50
2023/07/13 01:41:48;;;;;;;7.53;2.30;;;24.60;50.10;;;;;;5051456;28;20397;-44
2023/07/13 01:44:14;;;;;;;5.25;1.90;;;24.70;50.00;;;;;;5052474;28;20408;-48
2023/07/13 01:46:40;;;;;;;7.70;1.98;;;24.60;50.00;;;;;;5052219;28;20029;-46
2023/07/13 01:49:06;;;;;;;4.80;2.03;;;24.60;50.00;;;;;;5052649;28;20147;-45
2023/07/13 01:51:31;;;;;;;3.88;2.03;;;24.60;50.00;;;;;;5051246;28;20047;-42
2023/07/13 01:53:57;;;;;;;7.68;2.20;;;24.60;50.10;;;;;;5050701;28;21430;-43
2023/07/13 01:56:23;;;;;;;5.35;2.20;;;24.60;50.20;;;;;;5068956;28;20500;-42
2023/07/13 01:58:49;;;;;;;5.70;1.92;;;24.60;50.20;;;;;;5069033;28;20039;-42
2023/07/13 02:01:15;;;;;;;6.47;2.20;;;24.60;50.30;;;;;;5070105;28;20091;-43
2023/07/13 02:03:40;;;;;;;6.15;2.33;;;24.60;50.30;;;;;;5070335;28;20028;-44
2023/07/13 02:06:06;;;;;;;5.32;2.40;;;24.60;50.50;;;;;;5069000;28;20032;-43
2023/07/13 02:08:33;;;;;;;4.97;2.30;;;24.60;50.60;;;;;;5069065;28;20487;-44
2023/07/13 02:10:59;;;;;;;6.55;2.38;;;24.60;50.70;;;;;;5070175;28;20472;-42
2023/07/13 02:13:25;;;;;;;6.45;2.35;;;24.60;50.80;;;;;;5067909;28;20028;-43
2023/07/13 02:15:51;;;;;;;8.57;2.67;;;24.60;50.80;;;;;;5068586;28;20033;-41
2023/07/13 02:18:17;;;;;;;6.82;2.38;;;24.50;50.90;;;;;;5070193;28;20028;-43
2023/07/13 02:20:44;;;;;;;6.68;2.13;;;24.50;51.00;;;;;;5066876;28;20033;-45
2023/07/13 02:23:10;;;;;;;7.18;2.28;;;24.50;51.10;;;;;;5059741;28;20026;-42
2023/07/13 02:25:36;;;;;;;4.43;1.98;;;24.50;51.80;;;;;;5055672;28;20519;-41
2023/07/13 02:28:03;;;;;;;7.90;2.20;;;24.50;51.20;;;;;;5068977;28;20040;-42
2023/07/13 02:30:30;;;;;;;5.60;2.20;;;24.50;51.30;;;;;;5068899;28;20449;-49
2023/07/13 02:32:57;;;;;;;6.07;2.15;;;24.40;51.40;;;;;;5067807;28;20036;-44
2023/07/13 02:35:23;;;;;;;6.75;2.20;;;24.50;51.40;;;;;;5068367;28;20029;-47
2023/07/13 02:37:49;;;;;;;6.75;2.47;;;24.50;51.30;;;;;;5067764;28;20047;-42
2023/07/13 02:40:15;;;;;;;12.20;2.20;;;24.50;51.30;;;;;;5067444;28;20440;-48
2023/07/13 02:42:41;;;;;;;8.18;2.40;;;24.50;51.40;;;;;;5069394;28;20094;-42
2023/07/13 02:45:08;;;;;;;7.78;2.47;;;24.50;51.90;;;;;;5069359;28;20051;-46
2023/07/13 02:47:35;;;;;;;8.52;2.28;;;24.50;51.40;;;;;;5069796;28;20488;-44
2023/07/13 02:50:02;;;;;;;12.73;2.00;;;24.50;51.40;;;;;;5069823;28;20043;-41
2023/07/13 02:52:27;;;;;;;9.88;2.20;;;24.50;51.30;;;;;;5069156;28;20044;-43
2023/07/13 02:54:53;;;;;;;6.00;2.45;;;24.50;51.30;;;;;;5059791;28;20450;-41
2023/07/13 02:57:20;;;;;;;5.07;2.10;;;24.40;51.20;;;;;;5050788;28;20033;-41
2023/07/13 02:59:46;;;;;;;4.95;1.95;;;24.40;51.30;;;;;;5067602;28;20024;-42
2023/07/13 03:02:12;;;;;;;6.35;2.28;;;24.50;51.40;;;;;;5052160;28;20101;-42
2023/07/13 03:04:38;;;;;;;5.95;1.98;;;24.40;51.40;;;;;;5051188;28;20106;-41
2023/07/13 03:07:04;;;;;;;6.03;2.10;;;24.40;51.30;;;;;;5055642;28;20562;-41
2023/07/13 03:09:35;;;;;;;8.55;1.85;;;24.40;51.30;;;;;;5068492;28;20032;-42
2023/07/13 03:12:02;;;;;;;4.38;2.00;;;24.40;51.50;;;;;;5051202;28;20528;-45
2023/07/13 03:14:31;;;;;;;8.17;2.13;;;24.40;51.60;;;;;;5049903;28;20045;-42
2023/07/13 03:16:58;;;;;;;5.55;2.00;;;24.30;51.60;;;;;;5049899;28;20032;-41
2023/07/13 03:19:27;;;;;;;6.10;2.03;;;24.40;51.70;;;;;;5049927;28;20056;-42
2023/07/13 03:21:54;;;;;;;5.50;1.83;;;24.30;51.80;;;;;;5060956;28;20299;-41
2023/07/13 03:24:20;;;;;;;3.63;1.88;;;24.30;51.90;;;;;;5068162;28;20608;-42
2023/07/13 03:26:46;;;;;;;5.53;2.38;;;24.30;52.00;;;;;;5067831;28;20025;-41
2023/07/13 03:29:12;;;;;;;3.65;1.70;;;24.30;52.10;;;;;;5067560;28;20454;-41
2023/07/13 03:31:40;;;;;;;11.75;1.92;;;24.30;52.20;;;;;;5066738;28;20752;-46
2023/07/13 03:34:07;;;;;;;5.72;2.42;;;24.30;52.20;;;;;;5066892;28;20056;-44
2023/07/13 03:36:34;;;;;;;4.25;2.00;;;24.30;52.40;;;;;;5066604;28;20036;-41
2023/07/13 03:39:08;;;;;;;7.80;2.22;;;24.30;52.50;;;;;;5050707;28;20404;-41
2023/07/13 03:41:49;;;;;;;5.95;2.10;;;24.30;52.80;;;;;;5066840;28;20029;-44
2023/07/13 03:44:17;;;;;;;7.07;2.40;;;24.20;52.90;;;;;;5066674;28;20104;-41
2023/07/13 03:46:43;;;;;;;5.93;1.98;;;24.20;53.00;;;;;;5067209;28;20044;-42
2023/07/13 03:49:11;;;;;;;7.90;2.45;;;24.20;52.90;;;;;;5067785;28;20020;-41
2023/07/13 03:51:37;;;;;;;7.18;2.28;;;24.30;52.70;;;;;;5065847;28;20136;-41
2023/07/13 03:54:04;;;;;;;5.93;1.75;;;24.20;52.50;;;;;;5067860;28;20036;-42
2023/07/13 03:56:30;;;;;;;5.38;1.88;;;24.30;52.50;;;;;;5066341;28;20024;-43
2023/07/13 03:58:57;;;;;;;8.52;2.25;;;24.20;52.50;;;;;;5067377;28;20036;-42
2023/07/13 04:01:24;;;;;;;4.30;1.73;;;24.20;52.50;;;;;;5067497;28;20036;-46
2023/07/13 04:03:51;;;;;;;5.18;2.17;;;24.20;52.50;;;;;;5066290;28;20430;-41
2023/07/13 04:06:24;;;;;;;7.47;2.38;;;24.20;52.50;;;;;;5067087;28;20032;-42
2023/07/13 04:08:53;;;;;;;5.45;2.20;;;24.30;52.60;;;;;;5065933;28;20047;-42
2023/07/13 04:11:20;;;;;;;6.32;2.25;;;24.20;52.60;;;;;;5068013;28;20032;-41
2023/07/13 04:13:46;;;;;;;4.20;1.85;;;24.20;52.70;;;;;;5067764;28;20520;-41
2023/07/13 04:16:14;;;;;;;6.63;2.63;;;24.20;52.70;;;;;;5066166;28;20074;-43
2023/07/13 04:18:41;;;;;;;10.70;2.38;;;24.20;52.80;;;;;;5067227;28;20094;-42
2023/07/13 04:21:07;;;;;;;8.15;2.17;;;24.20;52.60;;;;;;5067840;28;20031;-40
2023/07/13 04:23:33;;;;;;;6.75;1.90;;;24.20;52.50;;;;;;5067408;28;20024;-41
2023/07/13 04:25:59;;;;;;;6.90;2.00;;;24.10;52.60;;;;;;5067879;28;20047;-42
2023/07/13 04:28:26;;;;;;;4.90;1.85;;;24.10;52.60;;;;;;5066779;28;20523;-41
2023/07/13 04:30:52;;;;;;;6.63;2.17;;;24.10;52.50;;;;;;5068005;28;20162;-41
2023/07/13 04:33:28;;;;;;;5.78;2.00;;;24.10;52.70;;;;;;5067560;28;20065;-41
2023/07/13 04:35:56;;;;;;;7.18;2.17;;;24.10;52.70;;;;;;5066311;28;20036;-45
2023/07/13 04:38:24;;;;;;;7.45;2.30;;;24.20;52.70;;;;;;5067775;28;20115;-41
2023/07/13 04:40:50;;;;;;;10.05;2.50;;;24.20;52.50;;;;;;5067296;28;20040;-45
2023/07/13 04:43:17;;;;;;;9.00;2.70;;;24.10;52.50;;;;;;5067517;28;20032;-45
2023/07/13 04:45:43;;;;;;;7.22;2.45;;;24.10;52.50;;;;;;5067258;28;20062;-46
2023/07/13 04:48:08;;;;;;;6.45;2.13;;;24.20;52.50;;;;;;5066931;28;20040;-44
2023/07/13 04:50:37;;;;;;;6.28;2.17;;;24.10;52.40;;;;;;5067612;28;20094;-45
2023/07/13 04:53:03;;;;;;;8.00;2.42;;;24.20;52.50;;;;;;5067114;28;20048;-44
2023/07/13 04:55:30;;;;;;;7.30;2.47;;;24.20;52.60;;;;;;5065941;28;20118;-42
2023/07/13 04:57:58;;;;;;;7.78;2.95;;;24.20;52.60;;;;;;5067714;28;20028;-43
2023/07/13 05:00:24;;;;;;;7.13;2.40;;;24.20;52.60;;;;;;5055077;28;20033;-44
2023/07/13 05:02:51;;;;;;;7.85;2.35;;;24.20;52.60;;;;;;5049249;28;20507;-47
2023/07/13 05:05:17;;;;;;;5.50;2.25;;;24.20;52.60;;;;;;5053440;28;20040;-45
2023/07/13 05:07:43;;;;;;;8.32;3.25;;;24.20;52.60;;;;;;5053096;28;20037;-41
2023/07/13 05:10:09;;;;;;;5.20;2.50;;;24.20;52.70;;;;;;5053441;28;20496;-43
2023/07/13 05:12:35;;;;;;;6.15;2.33;;;24.20;52.80;;;;;;5053278;28;20033;-41
2023/07/13 05:15:02;;;;;;;7.65;2.92;;;24.20;52.90;;;;;;5070482;28;20449;-42
2023/07/13 05:17:27;;;;;;;8.70;3.42;;;24.20;52.90;;;;;;5053301;28;20055;-41
2023/07/13 05:19:54;;;;;;;10.35;4.80;;;24.20;52.90;;;;;;5053177;28;20033;-43
2023/07/13 05:22:19;;;;;;;9.65;4.65;;;24.20;53.00;;;;;;5053202;28;20413;-41
2023/07/13 05:24:45;;;;;;;11.10;3.90;;;24.20;53.20;;;;;;5052991;28;20040;-44
2023/07/13 05:27:11;;;;;;;8.13;2.90;;;24.20;53.20;;;;;;5052843;28;20036;-43
2023/07/13 05:29:37;;;;;;;7.97;3.00;;;24.20;53.10;;;;;;5053240;28;20037;-41
2023/07/13 05:32:03;;;;;;;6.75;2.75;;;24.30;53.20;;;;;;5053374;28;20116;-41
2023/07/13 05:34:29;;;;;;;5.72;2.70;;;24.30;53.20;;;;;;5050747;28;20497;-42
2023/07/13 05:36:55;;;;;;;9.73;2.78;;;24.20;53.30;;;;;;5053210;28;20024;-45
2023/07/13 05:39:21;;;;;;;8.43;2.40;;;24.30;53.40;;;;;;5052677;28;20033;-42
2023/07/13 05:41:47;;;;;;;9.98;2.70;;;24.20;53.40;;;;;;5052583;28;20033;-42
2023/07/13 05:44:12;;;;;;;5.85;2.22;;;24.30;53.50;;;;;;5052887;28;20028;-43
2023/07/13 05:50:45;;;;;;;8.57;2.42;;;24.30;54.00;;;;;;5028970;28;20166;-47
2023/07/13 05:53:12;;;;;;;10.40;2.40;;;24.30;53.80;;;;;;5032893;28;20108;-44
2023/07/13 05:55:47;;;;;;;7.60;2.53;;;24.30;53.70;;;;;;5049409;28;20062;-46
2023/07/13 05:58:13;;;;;;;9.98;2.47;;;24.40;54.40;;;;;;5049993;28;20502;-47
2023/07/13 06:00:40;;;;;;;10.70;2.50;;;24.40;54.40;;;;;;5079871;22;20120;-45
2023/07/13 06:03:06;;;;;;;8.00;2.30;;;24.40;54.20;;;;;;5054005;28;20168;-46
2023/07/13 06:05:34;;;;;;;7.85;2.60;;;24.40;54.80;;;;;;5052481;28;20056;-49
2023/07/13 06:08:00;;;;;;;12.32;2.30;;;24.40;56.30;;;;;;5056303;28;20029;-50
2023/07/13 06:10:26;;;;;;;9.25;3.72;;;24.40;55.00;;;;;;5051920;28;20067;-48
2023/07/13 18:45:19;;;;;;;6.60;2.38;;;24.90;55.20;;;;;;5116880;27;20804;-41
2023/07/13 18:47:47;;;;;;;10.25;3.00;;;25.00;56.30;;;;;;5121512;28;20027;-43
2023/07/13 18:50:25;;;;;;;8.45;2.63;;;25.10;55.80;;;;;;5101211;28;20549;-43
2023/07/13 18:52:51;;;;;;;8.43;2.63;;;25.10;55.80;;;;;;5105705;28;20032;-43
2023/07/13 18:55:22;;;;;;;12.13;3.20;;;25.10;56.10;;;;;;5106416;28;20027;-44
2023/07/13 18:57:54;;;;;;;22.13;4.20;;;25.10;56.30;;;;;;5105912;28;20027;-47
2023/07/13 19:00:27;;;;;;;96.95;13.73;;;25.10;55.60;;;;;;5104264;28;20055;-48
2023/07/13 19:02:55;;;;;;;131.15;21.67;;;25.10;55.70;;;;;;5101212;28;20024;-45
2023/07/13 19:05:30;;;;;;;89.50;18.92;;;25.10;55.00;;;;;;5102343;28;20032;-49
2023/07/13 19:07:58;;;;;;;51.35;10.90;;;25.10;54.40;;;;;;5101775;28;20024;-43
2023/07/13 19:10:26;;;;;;;43.55;10.38;;;25.10;53.70;;;;;;5103108;28;20043;-44
2023/07/13 19:12:56;;;;;;;27.02;7.30;;;25.10;53.90;;;;;;5103822;28;20498;-49
2023/07/13 19:15:32;;;;;;;30.27;7.32;;;25.10;53.40;;;;;;5103352;28;20099;-45
2023/07/13 19:18:05;;;;;;;49.03;14.00;;;25.10;53.40;;;;;;5103633;28;20031;-45
2023/07/13 19:20:31;;;;;;;31.92;8.40;;;25.10;53.10;;;;;;5100395;28;20020;-44
2023/07/13 19:23:02;;;;;;;23.75;6.47;;;25.00;52.90;;;;;;5103091;28;20028;-43
2023/07/13 19:25:29;;;;;;;33.92;7.13;;;25.00;52.40;;;;;;5099939;28;20031;-49
2023/07/13 19:28:02;;;;;;;27.10;7.43;;;25.00;52.60;;;;;;5103792;28;20545;-43
2023/07/13 19:30:29;;;;;;;31.67;8.15;;;25.00;52.50;;;;;;5103534;28;20036;-46
2023/07/13 19:32:56;;;;;;;17.25;4.82;;;25.00;52.70;;;;;;5097862;28;20032;-49
2023/07/13 19:35:23;;;;;;;12.23;4.53;;;25.00;53.10;;;;;;5101742;28;20032;-43
2023/07/13 19:37:48;;;;;;;16.95;6.32;;;24.90;52.40;;;;;;5101960;28;20032;-46
2023/07/13 19:40:20;;;;;;;8.30;3.88;;;24.90;53.20;;;;;;5103559;28;20376;-44
2023/07/13 19:42:47;;;;;;;10.95;4.18;;;24.90;52.30;;;;;;5101042;28;20028;-44
2023/07/13 19:45:22;;;;;;;10.77;4.47;;;24.80;52.40;;;;;;5095867;28;20028;-48
2023/07/13 19:47:51;;;;;;;11.27;4.22;;;24.80;52.40;;;;;;5088232;28;20107;-46
2023/07/13 19:50:19;;;;;;;12.23;4.70;;;24.80;52.30;;;;;;5089460;28;20133;-43
2023/07/13 19:52:56;;;;;;;9.82;3.67;;;24.80;52.60;;;;;;5089568;28;20085;-48
2023/07/13 19:55:24;;;;;;;7.53;3.00;;;24.80;52.50;;;;;;5086400;28;20073;-47
2023/07/13 19:57:51;;;;;;;7.30;3.20;;;24.70;52.40;;;;;;5089828;28;20121;-46
2023/07/13 20:00:21;;;;;;;5.35;2.42;;;24.70;52.00;;;;;;5089040;28;20030;-48
2023/07/13 20:02:48;;;;;;;15.68;2.72;;;24.80;51.60;;;;;;5089589;28;20031;-43
2023/07/13 20:05:16;;;;;;;9.25;2.70;;;24.70;51.30;;;;;;5088834;28;20398;-44
2023/07/13 20:07:43;;;;;;;6.20;2.65;;;24.70;52.50;;;;;;5089072;28;20821;-43
2023/07/13 20:10:29;;;;;;;29.25;3.80;;;24.70;51.90;;;;;;5087810;28;20047;-42
2023/07/13 20:13:00;;;;;;;16.67;4.68;;;24.70;52.70;;;;;;5086530;28;20032;-42
2023/07/13 20:15:28;;;;;;;10.65;4.07;;;24.70;52.00;;;;;;5087119;28;20024;-42
2023/07/13 20:17:59;;;;;;;8.18;3.35;;;24.70;51.80;;;;;;5086738;28;20024;-44
2023/07/13 20:20:33;;;;;;;8.77;2.92;;;24.70;51.70;;;;;;5089367;28;20023;-45
2023/07/13 20:23:00;;;;;;;7.88;2.55;;;24.70;51.60;;;;;;5088245;28;20085;-43
2023/07/13 20:25:32;;;;;;;5.95;2.40;;;24.70;51.40;;;;;;5088559;28;20020;-47
2023/07/13 20:28:04;;;;;;;8.10;2.50;;;24.70;51.20;;;;;;5089331;28;20073;-48
2023/07/13 20:30:33;;;;;;;4.53;2.20;;;24.60;51.80;;;;;;5088173;28;20539;-46
2023/07/13 20:33:04;;;;;;;8.25;2.83;;;24.60;51.10;;;;;;5088632;28;20371;-45
2023/07/13 20:35:33;;;;;;;7.22;2.17;;;24.60;51.60;;;;;;5088319;28;20028;-42
2023/07/13 20:38:01;;;;;;;8.25;2.50;;;24.60;50.80;;;;;;5088532;28;20146;-43
2023/07/13 20:40:30;;;;;;;5.00;2.17;;;24.60;50.70;;;;;;5089309;28;20035;-48
2023/07/13 20:42:57;;;;;;;5.50;2.22;;;24.60;50.70;;;;;;5088291;28;20445;-48
2023/07/13 20:45:28;;;;;;;9.40;2.42;;;24.60;50.60;;;;;;5088311;28;20525;-47
2023/07/13 20:47:59;;;;;;;3.70;2.28;;;24.60;50.60;;;;;;5088340;28;20028;-47
2023/07/13 20:50:30;;;;;;;5.93;2.28;;;24.50;50.50;;;;;;5088199;28;20027;-42
2023/07/13 20:53:01;;;;;;;8.18;2.17;;;24.50;50.50;;;;;;5086696;28;20027;-45
2023/07/13 20:55:29;;;;;;;4.32;2.13;;;24.50;50.60;;;;;;5087810;28;20433;-48
2023/07/13 20:57:55;;;;;;;6.93;2.72;;;24.50;50.50;;;;;;5087635;28;20103;-42
2023/07/13 21:00:24;;;;;;;7.68;3.13;;;24.50;50.60;;;;;;5086536;28;20027;-43
2023/07/13 21:03:00;;;;;;;7.32;3.28;;;24.50;50.60;;;;;;5087846;28;20423;-45
2023/07/13 21:05:38;;;;;;;6.30;2.65;;;24.50;50.60;;;;;;5088370;28;20501;-42
2023/07/13 21:08:14;;;;;;;9.00;2.88;;;24.50;50.50;;;;;;5087892;28;20020;-47
2023/07/13 21:10:40;;;;;;;6.80;2.65;;;24.50;50.90;;;;;;5086038;28;20049;-44
2023/07/13 21:13:09;;;;;;;8.48;2.60;;;24.50;50.70;;;;;;5086847;28;20074;-43
2023/07/13 21:15:37;;;;;;;11.00;2.47;;;24.50;50.80;;;;;;5087805;28;20016;-45
2023/07/13 21:18:03;;;;;;;5.38;2.10;;;24.50;50.90;;;;;;5088097;28;20158;-44
2023/07/13 21:20:35;;;;;;;5.50;2.20;;;24.50;51.00;;;;;;5085628;28;20027;-43
2023/07/13 21:23:01;;;;;;;8.45;2.78;;;24.50;51.00;;;;;;5087784;28;20032;-45
2023/07/13 21:25:29;;;;;;;8.00;2.35;;;24.50;51.00;;;;;;5087490;28;20608;-45
2023/07/13 21:27:57;;;;;;;5.25;2.53;;;24.50;51.10;;;;;;5086858;28;20043;-47
2023/07/13 21:30:30;;;;;;;4.05;2.20;;;24.50;51.20;;;;;;5087038;28;20035;-42
2023/07/13 21:32:59;;;;;;;4.32;2.20;;;24.50;51.20;;;;;;5087892;28;20877;-42
2023/07/13 21:35:32;;;;;;;6.68;2.53;;;24.50;51.80;;;;;;5088024;28;20020;-42
2023/07/13 21:37:59;;;;;;;5.05;2.38;;;24.50;51.20;;;;;;5086993;28;20020;-44
2023/07/13 21:40:28;;;;;;;4.88;2.10;;;24.50;51.10;;;;;;5087794;28;20028;-43
2023/07/13 21:42:54;;;;;;;5.15;2.50;;;24.40;51.10;;;;;;5087484;28;20028;-44
2023/07/13 21:45:23;;;;;;;4.43;2.30;;;24.50;51.20;;;;;;5086445;28;20115;-44
2023/07/13 21:47:51;;;;;;;6.72;2.95;;;24.40;51.10;;;;;;5087931;28;20024;-44
2023/07/13 21:50:18;;;;;;;6.78;2.97;;;24.40;51.20;;;;;;5087060;28;20028;-43
2023/07/13 21:52:44;;;;;;;12.20;2.92;;;24.40;51.10;;;;;;5087214;28;20028;-45
2023/07/13 21:55:25;;;;;;;11.00;3.28;;;24.40;51.00;;;;;;5086738;28;20107;-43
2023/07/13 21:57:53;;;;;;;6.30;2.42;;;24.40;51.10;;;;;;5087127;28;20028;-45
2023/07/13 22:00:24;;;;;;;13.38;2.42;;;24.40;51.10;;;;;;5087102;28;20024;-44
2023/07/13 22:02:59;;;;;;;5.70;2.20;;;24.30;51.00;;;;;;5086807;28;20395;-47
2023/07/13 22:05:26;;;;;;;5.60;2.20;;;24.30;51.00;;;;;;5087009;28;20024;-42
2023/07/13 22:07:51;;;;;;;4.70;1.95;;;24.30;51.00;;;;;;5086831;28;20039;-44
2023/07/13 22:10:21;;;;;;;4.60;2.40;;;24.30;51.00;;;;;;5086637;28;20028;-42
2023/07/13 22:12:48;;;;;;;6.60;2.40;;;24.30;50.90;;;;;;5087361;28;20030;-46
2023/07/13 22:15:15;;;;;;;7.72;2.38;;;24.30;51.10;;;;;;5086476;28;20031;-42
2023/07/13 22:17:48;;;;;;;4.93;1.92;;;24.30;51.00;;;;;;5082265;28;20407;-42
2023/07/13 22:20:25;;;;;;;7.28;2.42;;;24.30;51.10;;;;;;5087625;28;20094;-45
2023/07/13 22:22:51;;;;;;;7.72;2.72;;;24.20;51.60;;;;;;5086918;28;20056;-46
2023/07/13 22:25:17;;;;;;;4.63;2.35;;;24.30;51.10;;;;;;5087283;28;20058;-47
2023/07/13 22:27:47;;;;;;;5.38;2.40;;;24.30;51.10;;;;;;5088221;28;20511;-43
2023/07/13 22:30:16;;;;;;;5.30;2.50;;;24.30;51.20;;;;;;5087360;28;20425;-41
2023/07/13 22:32:44;;;;;;;10.38;2.70;;;24.20;51.10;;;;;;5083338;28;20032;-42
2023/07/13 22:35:15;;;;;;;7.15;2.50;;;24.30;51.30;;;;;;5086127;28;20039;-41
2023/07/13 22:37:42;;;;;;;7.95;2.88;;;24.20;51.40;;;;;;5087636;28;20032;-42
2023/07/13 22:40:16;;;;;;;4.18;2.67;;;24.20;51.60;;;;;;5086695;28;20110;-43
2023/07/13 22:42:42;;;;;;;4.68;2.58;;;24.20;51.70;;;;;;5084659;28;20400;-41
2023/07/13 22:45:10;;;;;;;6.15;2.45;;;24.20;51.80;;;;;;5086859;28;20066;-42
2023/07/13 22:47:40;;;;;;;6.78;2.33;;;24.20;51.90;;;;;;5086383;28;20027;-42
2023/07/13 22:50:17;;;;;;;5.95;2.10;;;24.20;52.00;;;;;;5086517;28;20151;-46
2023/07/13 22:52:43;;;;;;;6.45;2.45;;;24.20;52.10;;;;;;5085971;28;20020;-44
2023/07/13 22:55:14;;;;;;;6.70;2.42;;;24.20;52.20;;;;;;5086501;28;20031;-47
2023/07/13 22:57:41;;;;;;;6.10;2.60;;;24.20;52.20;;;;;;5086680;28;20414;-46
2023/07/13 23:00:18;;;;;;;5.47;2.30;;;24.20;52.20;;;;;;5086653;28;20605;-47
2023/07/13 23:02:45;;;;;;;4.25;1.90;;;24.20;52.10;;;;;;5086941;28;20126;-45
2023/07/13 23:05:15;;;;;;;8.43;2.20;;;24.20;52.10;;;;;;5085703;28;20036;-43
2023/07/13 23:07:41;;;;;;;6.43;1.80;;;24.20;52.10;;;;;;5087017;28;20119;-47
2023/07/13 23:10:17;;;;;;;3.92;1.92;;;24.20;52.00;;;;;;5085863;28;20500;-48
2023/07/13 23:12:43;;;;;;;7.95;2.13;;;24.20;51.90;;;;;;5084360;28;20024;-47
2023/07/13 23:15:18;;;;;;;8.23;2.20;;;24.20;51.90;;;;;;5086209;28;20390;-46
2023/07/13 23:17:46;;;;;;;5.63;2.10;;;24.20;52.00;;;;;;5085122;28;20028;-43
2023/07/13 23:20:33;;;;;;;10.38;2.10;;;24.20;52.00;;;;;;5087805;28;20032;-44
2023/07/13 23:23:00;;;;;;;8.43;2.30;;;24.20;52.00;;;;;;5089915;28;20072;-42
2023/07/13 23:25:32;;;;;;;4.85;1.75;;;24.20;51.90;;;;;;5089971;28;20039;-44
2023/07/13 23:27:59;;;;;;;6.25;1.85;;;24.30;51.90;;;;;;5090289;28;20032;-42
2023/07/13 23:30:29;;;;;;;5.07;2.13;;;24.20;51.80;;;;;;5089349;28;20058;-43
2023/07/13 23:33:21;;;;;;;4.35;1.90;;;24.20;51.80;;;;;;5088462;28;20027;-43
2023/07/13 23:35:49;;;;;;;5.95;1.70;;;24.20;51.70;;;;;;5087161;28;20036;-41
2023/07/13 23:38:15;;;;;;;4.82;2.15;;;24.10;51.70;;;;;;5089976;28;20024;-42
2023/07/13 23:40:40;;;;;;;3.83;1.70;;;24.20;51.70;;;;;;5087097;28;20580;-41
2023/07/13 23:43:06;;;;;;;8.82;2.53;;;24.20;51.80;;;;;;5088173;28;20038;-44
2023/07/13 23:45:33;;;;;;;6.30;2.55;;;24.20;51.80;;;;;;5089746;28;20036;-42
2023/07/13 23:48:03;;;;;;;7.80;3.30;;;24.20;51.70;;;;;;5089466;28;20052;-42
2023/07/13 23:50:31;;;;;;;9.38;2.67;;;24.20;51.60;;;;;;5089767;28;20032;-42
2023/07/13 23:52:57;;;;;;;5.68;2.40;;;24.20;51.50;;;;;;5089007;28;20042;-42
2023/07/13 23:55:31;;;;;;;3.67;2.10;;;24.10;51.50;;;;;;5088940;28;20024;-42
2023/07/13 23:57:58;;;;;;;6.05;2.10;;;24.10;51.50;;;;;;5089452;28;20491;-43
